createdAt,value
2023-05-03T00:01:59.491Z,9.70
2023-05-03T00:04:25.865Z,9.70
2023-05-03T00:06:51.606Z,9.70
2023-05-03T00:09:16.460Z,9.60
2023-05-03T00:11:41.047Z,9.60
2023-05-03T00:14:05.762Z,9.50
2023-05-03T00:20:33.347Z,9.60
2023-05-03T00:22:57.840Z,9.60
2023-05-03T00:25:22.576Z,9.50
2023-05-03T00:27:47.181Z,9.50
2023-05-03T00:30:12.340Z,9.50
2023-05-03T00:32:37.431Z,9.50
2023-05-03T00:35:09.467Z,9.50
2023-05-03T00:38:23.813Z,9.50
2023-05-03T00:40:56.038Z,9.50
2023-05-03T00:43:21.243Z,9.50
2023-05-03T00:45:46.512Z,9.40
2023-05-03T00:48:11.805Z,9.40
2023-05-03T00:50:38.603Z,9.30
2023-05-03T00:53:05.055Z,9.30
2023-05-03T00:55:32.623Z,9.20
2023-05-03T00:57:58.880Z,9.30
2023-05-03T01:00:23.917Z,9.20
2023-05-03T01:02:49.430Z,9.30
2023-05-03T01:05:14.326Z,9.20
2023-05-03T01:07:49.387Z,9.20
2023-05-03T01:10:24.787Z,9.20
2023-05-03T01:12:56.954Z,9.20
2023-05-03T01:15:46.335Z,9.20
2023-05-03T01:18:16.498Z,9.20
2023-05-03T01:46:22.136Z,9.10
2023-05-03T01:48:49.571Z,9.00
2023-05-03T01:51:14.097Z,9.00
2023-05-03T01:53:38.683Z,8.90
2023-05-03T01:56:03.245Z,8.90
2023-05-03T01:58:27.792Z,8.80
2023-05-03T02:00:53.939Z,8.80
2023-05-03T02:03:19.261Z,8.70
2023-05-03T02:05:44.046Z,8.80
2023-05-03T02:08:10.328Z,8.70
2023-05-03T02:10:35.032Z,8.60
2023-05-03T02:17:39.773Z,8.50
2023-05-03T02:20:05.876Z,8.60
2023-05-03T02:22:30.600Z,8.50
2023-05-03T02:24:55.708Z,8.50
2023-05-03T02:27:20.293Z,8.40
2023-05-03T02:29:45.166Z,8.40
2023-05-03T02:32:10.417Z,8.30
2023-05-03T02:34:38.298Z,8.30
2023-05-03T02:37:02.880Z,8.30
2023-05-03T02:39:29.488Z,8.20
2023-05-03T02:41:55.299Z,8.10
2023-05-03T02:44:20.178Z,8.10
2023-05-03T02:46:45.145Z,8.00
2023-05-03T02:49:09.959Z,8.10
2023-05-03T02:51:36.830Z,8.10
2023-05-03T02:54:01.434Z,8.00
2023-05-03T02:56:27.712Z,8.00
2023-05-03T02:58:52.513Z,7.90
2023-05-03T03:01:18.599Z,8.00
2023-05-03T03:03:43.728Z,8.00
2023-05-03T03:06:10.264Z,8.00
2023-05-03T03:08:37.528Z,7.90
2023-05-03T03:11:03.093Z,7.90
2023-05-03T03:13:27.831Z,7.90
2023-05-03T03:15:52.864Z,7.90
2023-05-03T03:18:19.028Z,8.00
2023-05-03T03:20:49.826Z,8.30
2023-05-03T03:23:15.077Z,8.60
2023-05-03T03:25:43.483Z,8.90
2023-05-03T03:28:08.158Z,9.00
2023-05-03T03:30:34.919Z,9.30
2023-05-03T03:33:16.740Z,9.30
2023-05-03T03:35:42.258Z,9.40
2023-05-03T03:38:17.016Z,9.40
2023-05-03T03:40:50.488Z,9.40
2023-05-03T03:43:15.555Z,9.60
2023-05-03T03:45:41.285Z,9.60
2023-05-03T03:48:07.958Z,9.60
2023-05-03T03:50:34.276Z,9.60
2023-05-03T03:52:59.350Z,9.60
2023-05-03T03:55:25.564Z,9.50
2023-05-03T03:57:54.164Z,9.50
2023-05-03T04:00:20.816Z,9.60
2023-05-03T04:02:53.007Z,9.60
2023-05-03T04:05:21.424Z,9.60
2023-05-03T04:07:46.136Z,9.50
2023-05-03T04:10:13.108Z,9.30
2023-05-03T04:12:39.335Z,9.20
2023-05-03T04:15:07.010Z,9.10
2023-05-03T04:17:35.149Z,9.10
2023-05-03T04:20:05.481Z,9.00
2023-05-03T04:22:34.132Z,9.00
2023-05-03T04:25:01.344Z,9.00
2023-05-03T04:27:29.135Z,9.00
2023-05-03T04:29:57.372Z,9.10
2023-05-03T04:32:23.824Z,9.20
2023-05-03T04:34:53.983Z,9.20
2023-05-03T04:37:20.651Z,9.20
2023-05-03T04:39:49.746Z,9.30
2023-05-03T04:47:14.917Z,9.50
2023-05-03T04:49:41.324Z,9.80
2023-05-03T04:52:08.331Z,9.90
2023-05-03T04:54:33.355Z,10.00
2023-05-03T04:56:58.493Z,10.10
2023-05-03T04:59:25.991Z,10.20
2023-05-03T05:01:50.902Z,10.20
2023-05-03T05:04:15.780Z,10.30
2023-05-03T05:06:49.413Z,10.40
2023-05-03T05:09:24.888Z,10.50
2023-05-03T05:11:55.253Z,10.60
2023-05-03T05:14:22.624Z,10.80
2023-05-03T05:16:50.151Z,11.10
2023-05-03T05:19:15.209Z,11.40
2023-05-03T05:21:40.492Z,11.90
2023-05-03T05:24:08.004Z,12.40
2023-05-03T05:26:32.887Z,12.80
2023-05-03T05:28:58.399Z,12.80
2023-05-03T05:31:26.865Z,12.90
2023-05-03T05:33:52.455Z,12.80
2023-05-03T05:36:17.725Z,12.60
2023-05-03T05:38:43.549Z,12.60
2023-05-03T05:41:12.168Z,12.70
2023-05-03T05:43:39.527Z,12.70
2023-05-03T05:46:04.712Z,12.80
2023-05-03T05:48:29.745Z,12.80
2023-05-03T05:50:56.429Z,12.90
2023-05-03T05:53:21.818Z,13.10
2023-05-03T05:55:53.478Z,13.30
2023-05-03T05:58:20.478Z,13.20
2023-05-03T06:00:49.588Z,13.30
2023-05-03T06:03:16.054Z,13.30
2023-05-03T06:05:41.238Z,13.10
2023-05-03T06:08:07.589Z,13.20
2023-05-03T06:10:32.343Z,13.20
2023-05-03T06:12:58.067Z,13.20
2023-05-03T06:15:25.805Z,13.40
2023-05-03T06:17:50.634Z,13.40
2023-05-03T06:20:16.677Z,13.60
2023-05-03T06:22:41.650Z,14.20
2023-05-03T06:25:08.944Z,14.40
2023-05-03T06:27:34.603Z,14.60
2023-05-03T06:29:59.569Z,14.40
2023-05-03T06:32:25.850Z,14.60
2023-05-03T06:34:50.692Z,14.70
2023-05-03T06:37:16.555Z,14.70
2023-05-03T06:39:42.401Z,14.60
2023-05-03T06:42:07.987Z,14.60
2023-05-03T06:44:37.285Z,14.60
2023-05-03T06:47:02.052Z,14.60
2023-05-03T06:49:28.553Z,14.70
2023-05-03T06:51:53.319Z,14.80
2023-05-03T06:54:20.240Z,14.90
2023-05-03T06:56:45.520Z,15.20
2023-05-03T06:59:10.202Z,15.20
2023-05-03T07:01:35.467Z,15.10
2023-05-03T07:04:00.505Z,15.10
2023-05-03T07:06:26.860Z,15.20
2023-05-03T07:08:53.318Z,15.20
2023-05-03T07:11:19.527Z,15.20
2023-05-03T07:13:44.143Z,15.20
2023-05-03T07:16:09.171Z,15.40
2023-05-03T07:18:33.938Z,15.40
2023-05-03T07:20:58.547Z,15.30
2023-05-03T07:23:25.416Z,15.30
2023-05-03T07:25:50.336Z,15.30
2023-05-03T07:28:14.861Z,15.20
2023-05-03T07:30:39.686Z,15.10
2023-05-03T07:33:04.633Z,15.20
2023-05-03T07:35:29.261Z,15.40
2023-05-03T07:37:53.962Z,15.40
2023-05-03T07:40:20.749Z,15.30
2023-05-03T07:42:46.308Z,15.30
2023-05-03T07:45:12.014Z,15.50
2023-05-03T07:47:38.314Z,15.80
2023-05-03T07:50:05.207Z,16.20
2023-05-03T07:52:30.360Z,16.40
2023-05-03T07:54:55.500Z,16.20
2023-05-03T07:57:23.441Z,16.10
2023-05-03T07:59:48.392Z,16.00
2023-05-03T08:02:13.261Z,15.90
2023-05-03T08:04:38.244Z,16.00
2023-05-03T08:07:04.353Z,16.00
2023-05-03T08:09:29.637Z,16.10
2023-05-03T08:11:54.447Z,16.20
2023-05-03T08:14:20.869Z,16.40
2023-05-03T08:16:45.645Z,16.50
2023-05-03T08:19:13.201Z,16.40
2023-05-03T08:21:39.338Z,16.40
2023-05-03T08:24:06.509Z,16.40
2023-05-03T08:26:32.512Z,16.70
2023-05-03T08:28:57.926Z,16.50
2023-05-03T08:31:24.680Z,16.80
2023-05-03T08:33:49.756Z,16.80
2023-05-03T08:36:14.432Z,16.70
2023-05-03T08:38:42.652Z,16.80
2023-05-03T08:41:16.349Z,16.80
2023-05-03T08:43:45.616Z,16.90
2023-05-03T08:46:13.529Z,17.00
2023-05-03T08:48:39.679Z,17.10
2023-05-03T08:51:07.014Z,16.90
2023-05-03T08:53:32.146Z,16.70
2023-05-03T08:55:57.085Z,16.60
2023-05-03T08:58:22.378Z,16.60
2023-05-03T09:00:47.912Z,16.60
2023-05-03T09:03:13.264Z,16.70
2023-05-03T09:05:45.273Z,16.90
2023-05-03T09:08:12.761Z,17.10
2023-05-03T09:10:40.527Z,17.30
2023-05-03T09:13:06.645Z,17.50
2023-05-03T09:15:32.564Z,17.30
2023-05-03T09:18:17.533Z,17.20
2023-05-03T09:20:53.061Z,17.10
2023-05-03T09:23:20.142Z,17.20
2023-05-03T09:25:46.818Z,17.20
2023-05-03T09:28:11.793Z,17.30
2023-05-03T09:30:37.084Z,17.20
2023-05-03T09:33:02.067Z,17.20
2023-05-03T09:35:26.937Z,17.30
2023-05-03T09:37:52.955Z,17.20
2023-05-03T09:40:18.876Z,17.20
2023-05-03T09:43:08.442Z,17.20
2023-05-03T09:45:34.588Z,17.20
2023-05-03T09:47:59.571Z,17.00
2023-05-03T09:50:25.735Z,17.10
2023-05-03T09:52:57.809Z,17.00
2023-05-03T09:55:22.936Z,17.00
2023-05-03T09:57:50.988Z,16.90
2023-05-03T10:00:17.292Z,16.90
2023-05-03T10:02:44.656Z,17.00
2023-05-03T10:05:13.852Z,17.00
2023-05-03T10:07:42.229Z,17.10
2023-05-03T10:10:10.007Z,17.10
2023-05-03T10:12:36.221Z,17.20
2023-05-03T10:15:02.854Z,17.40
2023-05-03T10:17:46.213Z,17.40
2023-05-03T10:20:18.670Z,17.40
2023-05-03T10:23:14.716Z,17.40
2023-05-03T10:26:01.940Z,17.30
2023-05-03T10:28:26.882Z,17.50
2023-05-03T10:30:51.344Z,17.60
2023-05-03T10:33:35.049Z,17.70
2023-05-03T10:36:01.511Z,17.80
2023-05-03T10:38:27.712Z,17.70
2023-05-03T10:40:56.433Z,17.70
2023-05-03T10:43:50.667Z,17.80
2023-05-03T10:46:36.075Z,17.70
2023-05-03T10:49:23.569Z,17.70
2023-05-03T10:51:50.562Z,17.90
2023-05-03T10:54:15.160Z,18.00
2023-05-03T10:56:51.501Z,18.00
2023-05-03T10:59:16.514Z,18.30
2023-05-03T11:01:42.317Z,18.30
2023-05-03T11:04:11.649Z,18.30
2023-05-03T11:06:38.046Z,18.50
2023-05-03T11:09:04.483Z,18.60
2023-05-03T11:11:32.692Z,18.50
2023-05-03T11:13:59.413Z,18.50
2023-05-03T11:16:24.208Z,18.60
2023-05-03T11:18:50.713Z,18.60
2023-05-03T11:21:15.940Z,18.70
2023-05-03T11:23:41.628Z,18.70
2023-05-03T11:26:07.895Z,18.60
2023-05-03T11:28:32.837Z,18.50
2023-05-03T11:31:02.166Z,18.40
2023-05-03T11:33:28.356Z,18.50
2023-05-03T11:35:56.681Z,18.60
2023-05-03T11:38:21.269Z,18.60
2023-05-03T11:40:48.293Z,18.60
2023-05-03T11:43:13.325Z,18.60
2023-05-03T11:45:44.408Z,18.60
2023-05-03T11:48:11.912Z,18.60
2023-05-03T11:50:47.091Z,18.60
2023-05-03T11:53:13.124Z,18.60
2023-05-03T11:55:40.522Z,18.70
2023-05-03T11:58:05.218Z,18.60
2023-05-03T12:00:31.120Z,18.70
2023-05-03T12:02:55.786Z,18.70
2023-05-03T12:05:26.704Z,18.70
2023-05-03T12:07:53.258Z,18.70
2023-05-03T12:10:25.845Z,18.90
2023-05-03T12:13:00.310Z,18.70
2023-05-03T12:15:33.826Z,18.60
2023-05-03T12:18:00.825Z,18.70
2023-05-03T12:23:03.862Z,18.80
2023-05-03T12:25:33.871Z,18.80
2023-05-03T12:30:29.186Z,18.90
2023-05-03T12:32:54.134Z,19.00
2023-05-03T12:35:21.192Z,19.00
2023-05-03T12:37:50.504Z,19.10
2023-05-03T12:40:32.700Z,19.20
2023-05-03T12:42:59.310Z,19.20
2023-05-03T12:45:27.102Z,19.30
2023-05-03T12:47:52.914Z,19.40
2023-05-03T12:50:19.153Z,19.60
2023-05-03T12:52:45.494Z,19.70
2023-05-03T12:55:11.913Z,19.70
2023-05-03T12:57:37.929Z,19.70
2023-05-03T13:00:04.207Z,19.60
2023-05-03T13:05:02.109Z,19.50
2023-05-03T13:07:32.261Z,19.70
2023-05-03T13:12:31.072Z,19.60
2023-05-03T13:14:56.120Z,19.50
2023-05-03T13:17:22.956Z,19.50
2023-05-03T13:19:48.973Z,19.60
2023-05-03T13:22:17.207Z,19.70
2023-05-03T13:24:42.731Z,19.70
2023-05-03T13:27:09.234Z,19.80
2023-05-03T13:29:36.426Z,19.80
2023-05-03T13:32:03.069Z,19.80
2023-05-03T13:34:29.562Z,19.80
2023-05-03T13:36:54.855Z,19.60
2023-05-03T13:39:20.003Z,19.60
2023-05-03T13:41:46.451Z,19.60
2023-05-03T13:44:13.170Z,19.60
2023-05-03T13:46:43.764Z,19.60
2023-05-03T13:49:09.368Z,19.50
2023-05-03T13:51:35.035Z,19.40
2023-05-03T13:54:01.863Z,19.40
2023-05-03T13:56:27.418Z,19.40
2023-05-03T13:58:52.161Z,19.50
2023-05-03T14:01:17.312Z,19.60
2023-05-03T14:03:44.307Z,19.70
2023-05-03T14:06:09.468Z,19.70
2023-05-03T14:08:34.315Z,19.70
2023-05-03T14:10:58.816Z,19.80
2023-05-03T14:13:24.507Z,19.70
2023-05-03T14:15:49.244Z,19.70
2023-05-03T14:18:15.855Z,19.70
2023-05-03T14:20:42.559Z,19.80
2023-05-03T14:23:08.215Z,19.80
2023-05-03T14:25:32.615Z,19.80
2023-05-03T14:27:57.730Z,19.70
2023-05-03T14:30:22.758Z,19.70
2023-05-03T14:32:47.871Z,19.70
2023-05-03T14:35:12.555Z,19.70
2023-05-03T14:37:38.691Z,19.70
2023-05-03T14:40:03.811Z,19.60
2023-05-03T14:42:32.295Z,19.60
2023-05-03T14:45:01.122Z,19.60
2023-05-03T14:47:29.132Z,19.70
2023-05-03T14:49:53.796Z,19.70
2023-05-03T14:52:24.027Z,19.70
2023-05-03T14:54:50.290Z,19.80
2023-05-03T14:57:16.673Z,20.00
2023-05-03T14:59:55.130Z,20.10
2023-05-03T15:02:20.483Z,20.20
2023-05-03T15:04:45.108Z,20.30
2023-05-03T15:07:10.271Z,20.40
2023-05-03T15:09:35.042Z,20.40
2023-05-03T15:12:02.074Z,20.20
2023-05-03T15:14:26.703Z,20.10
2023-05-03T15:16:51.293Z,20.00
2023-05-03T15:19:16.343Z,20.00
2023-05-03T15:21:51.529Z,20.00
2023-05-03T15:24:16.032Z,20.10
2023-05-03T15:26:40.568Z,20.10
2023-05-03T15:29:06.658Z,20.10
2023-05-03T15:31:32.101Z,19.90
2023-05-03T15:33:56.746Z,19.90
2023-05-03T15:36:21.345Z,19.90
2023-05-03T15:38:46.813Z,19.80
2023-05-03T15:41:11.347Z,19.80
2023-05-03T15:43:36.192Z,19.70
2023-05-03T15:46:03.109Z,19.70
2023-05-03T15:48:27.666Z,19.50
2023-05-03T15:50:52.393Z,19.50
2023-05-03T15:53:17.186Z,19.50
2023-05-03T15:55:42.743Z,19.50
2023-05-03T15:58:07.892Z,19.40
2023-05-03T16:00:33.800Z,19.40
2023-05-03T16:03:00.467Z,19.40
2023-05-03T16:05:25.509Z,19.30
2023-05-03T16:07:50.970Z,19.20
2023-05-03T16:10:15.822Z,19.20
2023-05-03T16:12:41.027Z,19.20
2023-05-03T16:15:08.743Z,19.20
2023-05-03T16:17:34.508Z,19.10
2023-05-03T16:20:00.918Z,19.00
2023-05-03T16:22:25.613Z,18.90
2023-05-03T16:24:50.870Z,18.80
2023-05-03T16:27:15.429Z,18.80
2023-05-03T16:29:39.988Z,18.80
2023-05-03T16:32:06.385Z,18.70
2023-05-03T16:34:31.248Z,18.60
2023-05-03T16:36:57.282Z,18.60
2023-05-03T16:39:22.267Z,18.50
2023-05-03T16:41:47.087Z,18.40
2023-05-03T16:44:11.863Z,18.30
2023-05-03T16:46:37.181Z,18.20
2023-05-03T16:49:01.853Z,18.10
2023-05-03T16:51:27.921Z,18.10
2023-05-03T16:53:53.886Z,18.00
2023-05-03T16:56:18.430Z,18.00
2023-05-03T16:58:42.975Z,17.90
2023-05-03T17:01:08.157Z,17.90
2023-05-03T17:04:16.632Z,17.80
2023-05-03T17:06:41.825Z,17.80
2023-05-03T17:09:07.855Z,17.70
2023-05-03T17:11:32.905Z,17.60
2023-05-03T17:13:57.834Z,17.50
2023-05-03T17:16:23.306Z,17.50
2023-05-03T17:18:47.991Z,17.40
2023-05-03T17:21:12.765Z,17.40
2023-05-03T17:23:39.461Z,17.30
2023-05-03T17:26:07.096Z,17.30
2023-05-03T17:28:34.953Z,17.20
2023-05-03T17:30:59.715Z,17.20
2023-05-03T17:33:29.883Z,17.10
2023-05-03T17:35:55.679Z,17.10
2023-05-03T17:38:20.515Z,17.00
2023-05-03T17:40:46.087Z,16.90
2023-05-03T17:43:13.040Z,16.80
2023-05-03T17:45:37.772Z,16.80
2023-05-03T17:48:02.572Z,16.70
2023-05-03T17:50:27.281Z,16.50
2023-05-03T17:52:51.844Z,16.50
2023-05-03T17:55:18.187Z,16.40
2023-05-03T17:57:44.348Z,16.40
2023-05-03T18:00:15.456Z,16.40
2023-05-03T18:02:40.412Z,16.30
2023-05-03T18:05:06.988Z,16.30
2023-05-03T18:07:31.635Z,16.20
2023-05-03T18:09:56.689Z,16.20
2023-05-03T18:12:23.566Z,16.10
2023-05-03T18:14:48.129Z,16.00
2023-05-03T18:17:14.164Z,15.90
2023-05-03T18:19:38.885Z,15.80
2023-05-03T18:22:04.163Z,15.90
2023-05-03T18:24:28.676Z,15.70
2023-05-03T18:26:55.743Z,15.70
2023-05-03T18:29:20.254Z,15.60
2023-05-03T18:31:44.944Z,15.60
2023-05-03T18:34:10.942Z,15.60
2023-05-03T18:36:35.760Z,15.60
2023-05-03T18:39:00.437Z,15.50
2023-05-03T18:41:25.183Z,15.50
2023-05-03T18:43:50.538Z,15.50
2023-05-03T18:46:18.972Z,15.40
2023-05-03T18:48:45.203Z,15.30
2023-05-03T18:51:11.815Z,15.30
2023-05-03T18:53:36.630Z,15.30
2023-05-03T18:56:02.168Z,15.30
2023-05-03T18:58:27.138Z,15.40
2023-05-03T19:00:52.616Z,15.30
2023-05-03T19:03:17.278Z,15.30
2023-05-03T19:05:42.145Z,15.30
2023-05-03T19:08:30.090Z,15.20
2023-05-03T19:11:11.245Z,14.90
2023-05-03T19:13:36.579Z,14.90
2023-05-03T19:16:01.515Z,14.80
2023-05-03T19:18:28.744Z,14.60
2023-05-03T19:20:53.768Z,14.50
2023-05-03T19:23:23.723Z,14.40
2023-05-03T19:25:48.863Z,14.20
2023-05-03T19:28:13.658Z,14.20
2023-05-03T19:30:45.367Z,14.20
2023-05-03T19:33:11.499Z,14.20
2023-05-03T19:35:39.891Z,14.10
2023-05-03T19:38:06.439Z,14.10
2023-05-03T19:40:34.162Z,14.10
2023-05-03T19:42:58.770Z,14.00
2023-05-03T19:45:23.350Z,13.90
2023-05-03T19:47:48.162Z,13.90
2023-05-03T19:50:13.288Z,13.80
2023-05-03T19:52:37.880Z,13.80
2023-05-03T19:55:03.246Z,13.80
2023-05-03T19:57:31.330Z,13.80
2023-05-03T19:59:55.954Z,13.80
2023-05-03T20:02:22.513Z,13.80
2023-05-03T20:04:48.668Z,13.80
2023-05-03T20:07:13.408Z,13.70
2023-05-03T20:09:37.975Z,13.70
2023-05-03T20:12:03.797Z,13.60
2023-05-03T20:14:29.785Z,13.60
2023-05-03T20:16:54.382Z,13.60
2023-05-03T20:19:18.990Z,13.50
2023-05-03T20:21:44.716Z,13.50
2023-05-03T20:24:11.249Z,13.50
2023-05-03T20:26:35.831Z,13.40
2023-05-03T20:29:00.319Z,13.40
2023-05-03T20:31:26.325Z,13.40
2023-05-03T20:33:51.590Z,13.40
2023-05-03T20:36:16.181Z,13.40
2023-05-03T20:38:40.752Z,13.40
2023-05-03T20:41:05.404Z,13.50
2023-05-03T20:43:30.002Z,13.40
2023-05-03T20:45:54.702Z,13.30
2023-05-03T20:48:20.753Z,13.20
2023-05-03T20:50:45.543Z,13.10
2023-05-03T20:53:10.404Z,13.10
2023-05-03T20:55:35.016Z,13.10
2023-05-03T20:57:59.569Z,13.00
2023-05-03T21:00:24.782Z,13.00
2023-05-03T21:02:53.596Z,12.80
2023-05-03T21:05:20.159Z,12.80
2023-05-03T21:07:44.856Z,12.80
2023-05-03T21:10:11.267Z,12.80
2023-05-03T21:12:38.427Z,12.70
2023-05-03T21:15:03.278Z,12.70
2023-05-03T21:17:34.374Z,12.70
2023-05-03T21:19:58.961Z,12.60
2023-05-03T21:22:25.619Z,12.70
2023-05-03T21:24:50.331Z,12.60
2023-05-03T21:27:14.990Z,12.50
2023-05-03T21:29:39.696Z,12.50
2023-05-03T21:32:05.232Z,12.50
2023-05-03T21:34:29.869Z,12.40
2023-05-03T21:36:54.366Z,12.40
2023-05-03T21:39:21.506Z,12.40
2023-05-03T21:41:46.285Z,12.30
2023-05-03T21:44:12.052Z,12.30
2023-05-03T21:46:36.823Z,12.30
2023-05-03T21:49:01.575Z,12.30
2023-05-03T21:51:26.374Z,12.30
2023-05-03T21:53:51.243Z,12.20
2023-05-03T21:56:18.466Z,12.30
2023-05-03T21:58:45.356Z,12.30
2023-05-03T22:01:10.023Z,12.20
2023-05-03T22:03:34.803Z,12.20
2023-05-03T22:05:59.446Z,12.10
2023-05-03T22:08:24.259Z,12.10
2023-05-03T22:10:48.934Z,12.10
2023-05-03T22:13:15.293Z,12.20
2023-05-03T22:15:39.926Z,12.10
2023-05-03T22:18:05.210Z,12.10
2023-05-03T22:20:30.365Z,12.10
2023-05-03T22:22:55.353Z,12.00
2023-05-03T22:25:27.792Z,12.00
2023-05-03T22:27:53.303Z,12.00
2023-05-03T22:30:19.778Z,12.00
2023-05-03T22:32:44.562Z,12.00
2023-05-03T22:35:10.536Z,12.00
2023-05-03T22:37:35.159Z,12.00
2023-05-03T22:39:59.652Z,12.00
2023-05-03T22:42:24.130Z,11.90
2023-05-03T22:44:48.714Z,11.90
2023-05-03T22:47:14.613Z,12.00
2023-05-03T22:49:39.318Z,12.00
2023-05-03T22:52:04.285Z,12.10
2023-05-03T22:54:28.890Z,12.20
2023-05-03T22:56:54.704Z,12.30
2023-05-03T22:59:19.238Z,12.30
2023-05-03T23:01:46.178Z,12.40
2023-05-03T23:04:12.399Z,12.30
2023-05-03T23:06:36.914Z,12.20
2023-05-03T23:09:02.256Z,12.00
2023-05-03T23:11:26.776Z,11.90
2023-05-03T23:13:51.365Z,11.90
2023-05-03T23:16:16.006Z,11.90
2023-05-03T23:18:40.526Z,11.90
2023-05-03T23:21:06.668Z,11.80
2023-05-03T23:23:31.244Z,11.80
2023-05-03T23:25:56.962Z,11.80
2023-05-03T23:28:23.166Z,11.70
2023-05-03T23:30:47.903Z,11.60
2023-05-03T23:33:13.014Z,11.60
2023-05-03T23:35:38.083Z,11.60
2023-05-03T23:38:04.119Z,11.60
2023-05-03T23:40:29.721Z,11.50
2023-05-03T23:42:54.279Z,11.40
2023-05-03T23:45:18.991Z,11.30
2023-05-03T23:47:43.640Z,11.30
2023-05-03T23:50:10.364Z,11.30
2023-05-03T23:52:35.150Z,11.30
2023-05-03T23:55:01.252Z,11.30
2023-05-03T23:57:26.798Z,11.20
2023-05-03T23:59:51.257Z,11.10
